createdAt,value
2022-11-10T00:04:27.931Z,79.48
2022-11-10T00:09:48.307Z,79.52
2022-11-10T00:15:30.193Z,79.57
2022-11-10T00:20:50.693Z,79.51
2022-11-10T00:26:16.323Z,79.48
2022-11-10T00:31:38.438Z,79.56
2022-11-10T00:36:59.068Z,79.62
2022-11-10T00:42:19.387Z,79.45
2022-11-10T00:47:41.505Z,79.71
2022-11-10T00:53:02.106Z,79.98
2022-11-10T00:58:22.459Z,80.01
2022-11-10T01:03:42.706Z,79.97
2022-11-10T01:09:04.340Z,80.03
2022-11-10T01:14:24.613Z,80.07
2022-11-10T01:19:45.309Z,80.03
2022-11-10T01:25:05.642Z,79.93
2022-11-10T01:30:26.727Z,80.05
2022-11-10T01:35:47.332Z,80.12
2022-11-10T01:41:09.196Z,80.16
2022-11-10T01:46:29.842Z,80.33
2022-11-10T01:51:58.725Z,80.46
2022-11-10T01:57:19.392Z,80.30
2022-11-10T02:02:44.472Z,80.29
2022-11-10T02:08:05.283Z,80.14
2022-11-10T02:13:25.701Z,80.13
2022-11-10T02:18:46.617Z,80.10
2022-11-10T02:24:07.961Z,80.13
2022-11-10T02:29:28.509Z,80.22
2022-11-10T02:34:49.521Z,80.38
2022-11-10T02:40:10.350Z,80.30
2022-11-10T02:45:30.544Z,80.13
2022-11-10T02:50:51.062Z,79.94
2022-11-10T02:56:11.538Z,79.73
2022-11-10T03:01:32.945Z,79.61
2022-11-10T03:06:53.350Z,79.57
2022-11-10T03:12:13.861Z,79.42
2022-11-10T03:17:34.343Z,79.46
2022-11-10T03:23:00.099Z,79.61
2022-11-10T03:28:20.727Z,79.73
2022-11-10T03:33:41.157Z,79.64
2022-11-10T03:39:01.960Z,79.68
2022-11-10T03:44:22.204Z,79.58
2022-11-10T03:49:42.863Z,79.49
2022-11-10T03:55:03.829Z,79.40
2022-11-10T04:00:24.889Z,79.34
2022-11-10T04:06:03.694Z,79.26
2022-11-10T04:11:42.678Z,79.23
2022-11-10T04:17:03.629Z,79.21
2022-11-10T04:22:42.714Z,79.45
2022-11-10T04:28:02.988Z,79.64
2022-11-10T04:33:23.992Z,79.90
2022-11-10T04:38:45.038Z,80.03
2022-11-10T04:44:05.949Z,80.06
2022-11-10T04:49:26.452Z,80.31
2022-11-10T04:54:47.046Z,80.33
2022-11-10T05:00:07.797Z,80.44
2022-11-10T05:05:28.284Z,80.51
2022-11-10T05:10:48.835Z,80.58
2022-11-10T05:16:09.185Z,80.92
2022-11-10T05:21:29.818Z,80.99
2022-11-10T05:26:50.243Z,81.41
2022-11-10T05:32:10.623Z,81.54
2022-11-10T05:37:30.896Z,81.67
2022-11-10T05:42:53.113Z,81.84
2022-11-10T05:48:13.362Z,81.91
2022-11-10T05:53:33.652Z,82.13
2022-11-10T05:58:53.946Z,82.43
2022-11-10T06:04:14.256Z,82.67
2022-11-10T06:09:35.703Z,82.82
2022-11-10T06:14:58.952Z,82.77
2022-11-10T06:20:19.962Z,83.04
2022-11-10T06:25:41.335Z,83.23
2022-11-10T06:31:01.575Z,83.34
2022-11-10T06:36:22.633Z,83.67
2022-11-10T06:41:42.832Z,83.85
2022-11-10T06:47:03.441Z,83.85
2022-11-10T06:52:23.637Z,83.79
2022-11-10T06:57:44.291Z,83.68
2022-11-10T07:03:06.034Z,83.58
2022-11-10T07:08:26.559Z,83.58
2022-11-10T07:13:46.793Z,83.60
2022-11-10T07:19:07.202Z,83.59
2022-11-10T07:24:30.498Z,83.50
2022-11-10T07:29:51.423Z,83.31
2022-11-10T07:35:11.973Z,83.08
2022-11-10T07:40:32.501Z,83.02
2022-11-10T07:45:53.491Z,83.15
2022-11-10T07:51:13.890Z,83.33
2022-11-10T07:56:34.139Z,83.45
2022-11-10T08:01:54.751Z,83.48
2022-11-10T08:07:15.528Z,83.46
2022-11-10T08:12:35.999Z,83.39
2022-11-10T08:18:28.598Z,83.33
2022-11-10T08:23:52.982Z,83.26
2022-11-10T08:29:13.224Z,83.10
2022-11-10T08:34:33.567Z,83.01
2022-11-10T08:39:53.864Z,82.78
2022-11-10T08:45:14.511Z,82.55
2022-11-10T08:50:34.648Z,82.59
2022-11-10T08:55:58.182Z,82.62
2022-11-10T09:01:18.243Z,82.56
2022-11-10T09:06:38.705Z,82.45
2022-11-10T09:11:59.543Z,82.25
2022-11-10T09:17:19.845Z,82.15
2022-11-10T09:22:40.248Z,82.24
2022-11-10T09:28:00.792Z,82.11
2022-11-10T09:33:21.527Z,82.00
2022-11-10T09:38:42.388Z,81.98
2022-11-10T09:44:12.353Z,81.75
2022-11-10T09:49:36.028Z,81.53
2022-11-10T09:55:03.490Z,81.30
2022-11-10T10:00:24.053Z,80.86
2022-11-10T10:05:44.455Z,80.61
2022-11-10T10:11:10.925Z,79.94
2022-11-10T10:16:39.616Z,79.98
2022-11-10T10:22:13.623Z,79.65
2022-11-10T10:27:34.817Z,79.15
2022-11-10T10:33:02.710Z,78.68
2022-11-10T10:38:27.847Z,78.47
2022-11-10T10:43:50.246Z,78.42
2022-11-10T10:49:28.027Z,77.78
2022-11-10T10:54:59.334Z,77.57
2022-11-10T11:00:23.520Z,77.44
2022-11-10T11:05:48.269Z,76.71
2022-11-10T11:11:10.164Z,75.70
2022-11-10T11:16:45.306Z,75.22
2022-11-10T11:22:21.272Z,74.03
2022-11-10T11:28:00.100Z,74.01
2022-11-10T11:33:39.177Z,73.78
2022-11-10T11:39:25.470Z,74.17
2022-11-10T11:44:54.431Z,73.65
2022-11-10T11:50:14.759Z,74.26
2022-11-10T11:55:54.068Z,74.52
2022-11-10T12:01:33.154Z,74.21
2022-11-10T12:07:01.990Z,75.04
2022-11-10T12:12:46.028Z,73.75
2022-11-10T12:18:16.231Z,73.91
2022-11-10T12:23:48.923Z,70.95
2022-11-10T12:29:23.010Z,71.25
2022-11-10T12:34:46.943Z,71.00
2022-11-10T12:40:18.702Z,64.66
2022-11-10T12:45:47.529Z,64.43
2022-11-10T12:51:12.741Z,64.81
2022-11-10T12:56:42.083Z,65.80
2022-11-10T13:02:04.886Z,66.47
2022-11-10T13:07:25.474Z,64.70
2022-11-10T13:13:04.343Z,65.63
2022-11-10T13:18:44.587Z,65.64
2022-11-10T13:24:04.928Z,66.38
2022-11-10T13:29:32.405Z,68.15
2022-11-10T13:34:53.462Z,68.08
2022-11-10T13:40:19.840Z,67.29
2022-11-10T13:45:44.750Z,66.57
2022-11-10T13:51:08.118Z,64.67
2022-11-10T13:56:28.248Z,65.31
2022-11-10T14:01:48.483Z,63.32
2022-11-10T14:07:18.961Z,62.25
2022-11-10T14:12:44.084Z,64.06
2022-11-10T14:18:14.433Z,62.68
2022-11-10T14:23:38.199Z,64.53
2022-11-10T14:29:18.647Z,64.12
2022-11-10T14:34:44.819Z,64.04
2022-11-10T14:40:12.509Z,63.81
2022-11-10T14:45:32.638Z,64.24
2022-11-10T14:50:53.903Z,65.18
2022-11-10T14:56:15.963Z,64.90
2022-11-10T15:01:38.859Z,65.95
2022-11-10T15:07:00.425Z,65.81
2022-11-10T15:12:26.437Z,65.73
2022-11-10T15:17:48.192Z,66.16
2022-11-10T15:23:21.135Z,66.73
2022-11-10T15:28:42.197Z,66.91
2022-11-10T15:34:05.595Z,67.10
2022-11-10T15:39:27.485Z,67.30
2022-11-10T15:44:47.976Z,67.49
2022-11-10T15:50:11.967Z,67.92
2022-11-10T15:55:34.592Z,68.28
2022-11-10T16:00:55.165Z,69.04
2022-11-10T16:06:16.056Z,69.42
2022-11-10T16:11:36.809Z,69.83
2022-11-10T16:16:57.556Z,70.35
2022-11-10T16:22:18.410Z,70.70
2022-11-10T16:27:39.768Z,71.24
2022-11-10T16:33:00.705Z,71.98
2022-11-10T16:38:26.150Z,72.72
2022-11-10T16:43:46.925Z,72.91
2022-11-10T16:49:23.172Z,73.44
2022-11-10T16:54:43.419Z,73.73
2022-11-10T17:00:03.751Z,73.68
2022-11-10T17:05:24.346Z,73.69
2022-11-10T17:10:44.623Z,74.09
2022-11-10T17:16:06.833Z,73.84
2022-11-10T17:21:32.886Z,74.01
2022-11-10T17:26:54.418Z,74.29
2022-11-10T17:32:14.944Z,74.78
2022-11-10T17:37:35.741Z,74.37
2022-11-10T17:42:56.028Z,74.41
2022-11-10T17:48:16.305Z,75.24
2022-11-10T17:53:36.807Z,75.26
2022-11-10T17:58:57.142Z,74.90
2022-11-10T18:04:17.915Z,75.52
2022-11-10T18:09:38.103Z,75.31
2022-11-10T18:14:58.792Z,75.42
2022-11-10T18:20:19.254Z,75.98
2022-11-10T18:25:40.180Z,75.72
2022-11-10T18:31:10.849Z,76.04
2022-11-10T18:36:31.216Z,76.35
2022-11-10T18:41:52.667Z,76.64
2022-11-10T18:47:13.130Z,76.82
2022-11-10T18:52:33.884Z,76.81
2022-11-10T18:57:54.097Z,76.75
2022-11-10T19:03:14.405Z,76.84
2022-11-10T19:08:35.024Z,76.78
2022-11-10T19:13:56.790Z,76.75
2022-11-10T19:19:17.016Z,76.84
2022-11-10T19:24:53.641Z,76.99
2022-11-10T19:30:17.706Z,76.96
2022-11-10T19:35:41.880Z,76.91
2022-11-10T19:41:07.077Z,76.85
2022-11-10T19:46:28.495Z,76.85
2022-11-10T19:51:49.420Z,76.91
2022-11-10T19:57:10.022Z,76.84
2022-11-10T20:02:30.716Z,76.90
2022-11-10T20:08:10.129Z,77.07
2022-11-10T20:13:30.998Z,77.38
2022-11-10T20:18:51.524Z,77.90
2022-11-10T20:24:12.904Z,78.36
2022-11-10T20:29:33.536Z,78.50
2022-11-10T20:34:53.550Z,78.76
2022-11-10T20:40:42.410Z,79.00
2022-11-10T20:45:54.530Z,79.41
2022-11-10T20:51:19.464Z,79.72
2022-11-10T20:56:40.021Z,79.94
2022-11-10T21:02:00.643Z,80.08
2022-11-10T21:07:21.290Z,80.30
2022-11-10T21:12:50.764Z,80.42
2022-11-10T21:18:11.649Z,80.63
2022-11-10T21:23:32.199Z,80.79
2022-11-10T21:28:52.552Z,80.75
2022-11-10T21:34:13.262Z,80.74
2022-11-10T21:39:33.506Z,81.10
2022-11-10T21:44:54.254Z,81.22
2022-11-10T21:50:14.633Z,81.41
2022-11-10T21:55:35.336Z,81.65
2022-11-10T22:01:02.560Z,81.78
2022-11-10T22:06:23.108Z,81.83
2022-11-10T22:12:02.539Z,81.93
2022-11-10T22:17:41.534Z,82.10
2022-11-10T22:23:01.788Z,82.18
2022-11-10T22:28:22.159Z,82.27
2022-11-10T22:33:43.443Z,82.29
2022-11-10T22:39:04.341Z,82.31
2022-11-10T22:44:25.340Z,82.25
2022-11-10T22:49:45.624Z,82.12
2022-11-10T22:55:06.456Z,82.03
2022-11-10T23:00:26.804Z,82.00
2022-11-10T23:05:53.596Z,82.09
2022-11-10T23:11:17.732Z,82.21
2022-11-10T23:16:38.444Z,82.25
2022-11-10T23:21:58.978Z,82.31
2022-11-10T23:27:19.678Z,82.29
2022-11-10T23:32:40.196Z,82.22
2022-11-10T23:38:00.662Z,82.15
2022-11-10T23:43:21.481Z,82.11
2022-11-10T23:48:42.187Z,82.06
2022-11-10T23:54:02.792Z,82.19
2022-11-10T23:59:23.200Z,82.31
